createdAt,value
2022-08-17T00:01:29.322Z,42.5
2022-08-17T00:04:34.620Z,42.4
2022-08-17T00:07:02.849Z,42.37
2022-08-17T00:09:31.108Z,42.3
2022-08-17T00:12:34.629Z,42.23
2022-08-17T00:14:27.582Z,42.46
2022-08-17T00:17:24.687Z,42.15
2022-08-17T00:20:30.533Z,42.14
2022-08-17T00:23:35.332Z,42.48
2022-08-17T00:26:03.561Z,42.34
2022-08-17T00:28:33.325Z,42.58
2022-08-17T00:31:00.100Z,42.76
2022-08-17T00:33:28.472Z,42.55
2022-08-17T00:36:33.605Z,42.42
2022-08-17T00:39:01.913Z,42.59
2022-08-17T00:41:30.967Z,41.49
2022-08-17T00:44:35.421Z,42.15
2022-08-17T00:47:03.661Z,42.34
2022-08-17T00:49:31.914Z,42.72
2022-08-17T00:52:00.183Z,42.53
2022-08-17T00:54:28.442Z,42.7
2022-08-17T00:57:33.753Z,42.69
2022-08-17T01:00:03.432Z,42.75
2022-08-17T01:02:30.220Z,42.48
2022-08-17T01:05:35.563Z,42.68
2022-08-17T01:08:03.756Z,42.85
2022-08-17T01:10:57.715Z,42.75
2022-08-17T01:13:00.284Z,43.12
2022-08-17T01:15:28.531Z,43.27
2022-08-17T01:18:25.665Z,43
2022-08-17T01:21:30.955Z,42.92
2022-08-17T01:24:36.297Z,42.58
2022-08-17T01:27:08.059Z,43.02
2022-08-17T01:29:32.774Z,42.51
2022-08-17T01:32:01.029Z,42.62
2022-08-17T01:34:36.841Z,43.04
2022-08-17T01:37:34.589Z,42.91
2022-08-17T01:40:02.914Z,42.94
2022-08-17T01:42:31.036Z,43.65
2022-08-17T01:45:36.372Z,43.58
2022-08-17T01:48:04.631Z,43.69
2022-08-17T01:50:32.855Z,43.51
2022-08-17T01:53:01.128Z,43.69
2022-08-17T01:55:29.354Z,43.61
2022-08-17T01:58:34.674Z,43.6
2022-08-17T02:01:02.970Z,43.41
2022-08-17T02:03:31.212Z,43.39
2022-08-17T02:05:59.450Z,43.51
2022-08-17T02:08:36.930Z,43.48
2022-08-17T02:11:32.974Z,43.31
2022-08-17T02:14:02.720Z,43.5
2022-08-17T02:16:29.496Z,43.55
2022-08-17T02:19:26.588Z,43.45
2022-08-17T02:22:31.907Z,43.97
2022-08-17T02:25:02.229Z,43.84
2022-08-17T02:27:28.415Z,43.63
2022-08-17T02:30:50.010Z,43.92
2022-08-17T02:33:03.993Z,43.95
2022-08-17T02:35:30.192Z,43.81
2022-08-17T02:38:35.549Z,43.54
2022-08-17T02:41:03.851Z,43.75
2022-08-17T02:43:32.057Z,44.14
2022-08-17T02:46:00.294Z,44.02
2022-08-17T02:48:29.737Z,43.72
2022-08-17T02:51:33.824Z,43.62
2022-08-17T02:54:35.804Z,43.83
2022-08-17T02:56:30.328Z,44.27
2022-08-17T02:58:58.577Z,44.04
2022-08-17T03:01:26.861Z,44.41
2022-08-17T03:04:32.161Z,44.54
2022-08-17T03:07:00.368Z,44.43
2022-08-17T03:09:28.621Z,43.91
2022-08-17T03:12:33.917Z,44.52
2022-08-17T03:15:02.182Z,44.16
2022-08-17T03:17:30.436Z,43.87
2022-08-17T03:19:50.483Z,44.27
2022-08-17T03:22:35.783Z,43.87
2022-08-17T03:25:24.101Z,44.46
2022-08-17T03:28:29.365Z,44.27
2022-08-17T03:31:37.133Z,44.48
2022-08-17T03:34:02.921Z,44.72
2022-08-17T03:36:31.140Z,44.4
2022-08-17T03:38:59.410Z,44.55
2022-08-17T03:41:27.633Z,44.47
2022-08-17T03:44:32.943Z,44.31
2022-08-17T03:47:01.257Z,43.88
2022-08-17T03:49:29.462Z,42.45
2022-08-17T03:52:34.752Z,42.26
2022-08-17T03:55:03.190Z,42.41
2022-08-17T03:58:08.364Z,42.64
2022-08-17T04:01:13.681Z,42.37
2022-08-17T04:04:18.942Z,42.06
2022-08-17T04:07:24.246Z,41.6
2022-08-17T04:10:29.577Z,41.13
2022-08-17T04:13:34.903Z,40.64
2022-08-17T04:16:03.159Z,40.44
2022-08-17T04:19:00.216Z,40.59
2022-08-17T04:21:28.498Z,41.68
2022-08-17T04:24:33.843Z,41.98
2022-08-17T04:27:02.070Z,41.89
2022-08-17T04:29:30.488Z,41.59
2022-08-17T04:32:58.772Z,40.8
2022-08-17T04:35:03.851Z,40.74
2022-08-17T04:37:32.114Z,41.4
2022-08-17T04:40:03.783Z,41.36
2022-08-17T04:42:28.621Z,41.11
2022-08-17T04:45:33.903Z,41.11
2022-08-17T04:48:02.198Z,41.04
2022-08-17T04:50:30.418Z,41.58
2022-08-17T04:53:35.721Z,41.56
2022-08-17T04:56:03.962Z,41.16
2022-08-17T04:58:32.216Z,40.57
2022-08-17T05:01:00.525Z,40.57
2022-08-17T05:03:28.723Z,40.19
2022-08-17T05:06:34.034Z,40.07
2022-08-17T05:09:02.292Z,39.93
2022-08-17T05:11:30.513Z,39.73
2022-08-17T05:14:35.827Z,40.2
2022-08-17T05:17:04.137Z,40.31
2022-08-17T05:19:32.350Z,41.16
2022-08-17T05:21:52.370Z,40.96
2022-08-17T05:24:38.272Z,40.9
2022-08-17T05:27:26.946Z,40.97
2022-08-17T05:30:31.268Z,40.79
2022-08-17T05:32:59.508Z,41.56
2022-08-17T05:35:27.729Z,41.16
2022-08-17T05:38:33.098Z,41.11
2022-08-17T05:41:01.353Z,41.56
2022-08-17T05:43:29.588Z,40.95
2022-08-17T05:46:34.860Z,41.24
2022-08-17T05:49:03.143Z,41.2
2022-08-17T05:51:31.408Z,41.09
2022-08-17T05:53:59.614Z,41.22
2022-08-17T05:56:29.188Z,41.68
2022-08-17T05:59:33.191Z,41.43
2022-08-17T06:02:01.448Z,41.29
2022-08-17T06:04:29.635Z,42.53
2022-08-17T06:07:34.989Z,41.87
2022-08-17T06:10:03.230Z,41.35
2022-08-17T06:12:31.490Z,42.21
2022-08-17T06:14:59.727Z,42.47
2022-08-17T06:17:27.988Z,43.56
2022-08-17T06:20:25.112Z,43.76
2022-08-17T06:23:30.398Z,43.77
2022-08-17T06:26:38.399Z,44.57
2022-08-17T06:29:03.982Z,44.57
2022-08-17T06:31:32.226Z,44.98
2022-08-17T06:34:00.440Z,44.81
2022-08-17T06:36:28.718Z,44.56
2022-08-17T06:39:34.073Z,46.28
2022-08-17T06:42:02.273Z,45.88
2022-08-17T06:44:42.440Z,44.21
2022-08-17T06:47:35.827Z,43.13
2022-08-17T06:50:04.096Z,43.41
2022-08-17T06:52:42.327Z,44.33
2022-08-17T06:55:00.545Z,44.4
2022-08-17T06:57:28.815Z,44.74
2022-08-17T07:03:02.880Z,45.5
2022-08-17T07:05:30.631Z,44.14
2022-08-17T07:07:58.854Z,44.95
2022-08-17T07:10:27.134Z,44.86
2022-08-17T07:13:32.418Z,44.69
2022-08-17T07:16:00.689Z,44.98
2022-08-17T07:18:28.911Z,44.71
2022-08-17T07:21:26.577Z,46.97
2022-08-17T07:24:31.354Z,45.54
2022-08-17T07:26:59.610Z,45.7
2022-08-17T07:29:27.819Z,45.51
2022-08-17T07:32:33.163Z,46.12
2022-08-17T07:35:01.413Z,46.7
2022-08-17T07:37:29.670Z,47.36
2022-08-17T07:40:35.032Z,48.37
2022-08-17T07:43:03.315Z,47.51
2022-08-17T07:45:31.455Z,47.98
2022-08-17T07:47:59.717Z,48.45
2022-08-17T07:50:27.981Z,48.58
2022-08-17T07:53:33.298Z,48.41
2022-08-17T07:56:01.549Z,47.59
2022-08-17T07:58:29.774Z,47.81
2022-08-17T08:01:39.347Z,47.71
2022-08-17T08:04:03.334Z,47.3
2022-08-17T08:06:31.591Z,49.06
2022-08-17T08:08:59.841Z,38.67
2022-08-17T08:12:05.110Z,45.37
2022-08-17T08:14:33.414Z,48.01
2022-08-17T08:17:01.632Z,48.96
2022-08-17T08:19:29.911Z,49.09
2022-08-17T08:22:27.022Z,47.03
2022-08-17T08:25:32.321Z,48.29
2022-08-17T08:28:00.553Z,49.19
2022-08-17T08:30:28.825Z,48.48
2022-08-17T08:33:34.101Z,49.34
2022-08-17T08:36:02.352Z,48.98
2022-08-17T08:38:30.608Z,48.34
2022-08-17T08:41:35.926Z,49.39
2022-08-17T08:44:04.181Z,49.78
2022-08-17T08:46:32.396Z,51.47
2022-08-17T08:49:03.803Z,50.78
2022-08-17T08:51:28.930Z,49.37
2022-08-17T08:54:34.236Z,49.86
2022-08-17T08:57:22.086Z,50.36
2022-08-17T08:59:30.723Z,49.54
2022-08-17T09:02:36.032Z,49.17
2022-08-17T09:05:15.625Z,48.68
2022-08-17T09:07:32.554Z,50.92
2022-08-17T09:10:00.760Z,50.64
2022-08-17T09:12:29.046Z,48.66
2022-08-17T09:15:34.367Z,48.46
2022-08-17T09:18:30.658Z,49.41
2022-08-17T09:20:27.845Z,48.35
2022-08-17T09:23:27.920Z,47.31
2022-08-17T09:26:33.310Z,47.92
2022-08-17T09:29:01.554Z,46.86
2022-08-17T09:31:33.195Z,46.87
2022-08-17T09:34:35.052Z,47.02
2022-08-17T09:37:03.366Z,46.47
2022-08-17T09:39:31.642Z,47.66
2022-08-17T09:41:59.811Z,47.74
2022-08-17T09:44:28.078Z,46.64
2022-08-17T09:47:33.387Z,47.07
2022-08-17T09:50:01.604Z,46.02
2022-08-17T09:52:29.860Z,46.04
2022-08-17T09:55:35.195Z,45.72
2022-08-17T09:58:03.420Z,46.17
2022-08-17T10:00:31.676Z,45.81
2022-08-17T10:02:59.927Z,46.48
2022-08-17T10:06:06.466Z,45.51
2022-08-17T10:08:33.481Z,44.86
2022-08-17T10:11:01.753Z,44.8
2022-08-17T10:13:29.958Z,46.01
2022-08-17T10:16:35.294Z,46.08
2022-08-17T10:19:03.515Z,45.97
2022-08-17T10:21:23.593Z,46.46
2022-08-17T10:24:28.924Z,47.07
2022-08-17T10:27:34.254Z,47.54
2022-08-17T10:30:02.468Z,47.29
2022-08-17T10:32:30.689Z,43.85
2022-08-17T10:34:58.994Z,47.22
2022-08-17T10:37:27.213Z,41.99
2022-08-17T10:40:32.632Z,44.84
2022-08-17T10:43:00.762Z,45.02
2022-08-17T10:45:28.995Z,44.48
2022-08-17T10:48:34.340Z,45.86
2022-08-17T10:51:02.576Z,45.77
2022-08-17T10:53:30.800Z,46.61
2022-08-17T10:56:36.132Z,46.17
2022-08-17T10:59:04.400Z,42.89
2022-08-17T11:01:32.717Z,45.99
2022-08-17T11:04:00.860Z,45.06
2022-08-17T11:07:06.173Z,43.94
2022-08-17T11:09:34.463Z,43.49
2022-08-17T11:12:02.749Z,44.57
2022-08-17T11:14:30.936Z,45.24
2022-08-17T11:17:36.249Z,45.31
2022-08-17T11:21:10.423Z,45.66
2022-08-17T11:24:15.728Z,45.73
2022-08-17T11:27:21.055Z,45.18
2022-08-17T11:30:26.697Z,46.06
2022-08-17T11:33:31.813Z,46.02
2022-08-17T11:35:59.910Z,43.47
2022-08-17T11:39:37.202Z,45.72
2022-08-17T11:41:33.443Z,45.87
2022-08-17T11:44:02.085Z,45.92
2022-08-17T11:46:29.930Z,45.39
2022-08-17T11:49:35.289Z,45.83
2022-08-17T11:52:03.529Z,45.78
2022-08-17T11:54:33.578Z,46.11
2022-08-17T11:57:00.050Z,46.15
2022-08-17T11:59:28.270Z,46.41
2022-08-17T12:02:33.578Z,46.19
2022-08-17T12:05:01.866Z,46.02
2022-08-17T12:07:30.117Z,46.08
2022-08-17T12:10:35.450Z,46.63
2022-08-17T12:13:03.631Z,46.48
2022-08-17T12:15:31.914Z,46.85
2022-08-17T12:18:00.183Z,46.56
2022-08-17T12:20:28.364Z,47.01
2022-08-17T12:23:25.524Z,46.98
2022-08-17T12:26:30.815Z,46.99
2022-08-17T12:28:59.723Z,46.25
2022-08-17T12:31:27.318Z,45.85
2022-08-17T12:34:32.624Z,46.46
2022-08-17T12:37:00.838Z,47.16
2022-08-17T12:39:29.137Z,47.25
2022-08-17T12:42:34.418Z,47.09
2022-08-17T12:45:02.683Z,46.18
2022-08-17T12:47:31.715Z,45.85
2022-08-17T12:50:36.230Z,41.89
2022-08-17T12:53:04.489Z,42.57
2022-08-17T12:55:33.999Z,42.59
2022-08-17T12:58:01.929Z,44.56
2022-08-17T13:00:29.197Z,41.81
2022-08-17T13:04:11.593Z,40.6
2022-08-17T13:07:16.914Z,43
2022-08-17T13:10:22.226Z,40.23
2022-08-17T13:13:27.546Z,39.26
2022-08-17T13:16:32.834Z,38.5
2022-08-17T13:19:01.054Z,39.69
2022-08-17T13:21:29.335Z,39.75
2022-08-17T13:24:26.438Z,38.29
2022-08-17T13:27:31.775Z,37.48
2022-08-17T13:30:00.029Z,40.44
2022-08-17T13:33:05.313Z,38.46
2022-08-17T13:35:39.686Z,37.04
2022-08-17T13:38:01.872Z,37.31
2022-08-17T13:40:30.075Z,34.08
2022-08-17T13:43:35.358Z,34.97
2022-08-17T13:46:03.595Z,35.15
2022-08-17T13:48:31.890Z,33.21
2022-08-17T13:51:00.225Z,33.28
2022-08-17T13:53:28.338Z,33.74
2022-08-17T13:56:38.110Z,33.64
2022-08-17T13:59:01.942Z,34.18
2022-08-17T14:01:30.230Z,32.76
2022-08-17T14:04:35.465Z,33.71
2022-08-17T14:07:03.733Z,33.03
2022-08-17T14:09:36.474Z,32.31
2022-08-17T14:12:00.212Z,32.44
2022-08-17T14:14:28.445Z,32.49
2022-08-17T14:17:38.563Z,32.82
2022-08-17T14:20:02.053Z,32.34
2022-08-17T14:22:59.183Z,32.58
2022-08-17T14:25:27.416Z,32.81
2022-08-17T14:28:32.717Z,32.19
2022-08-17T14:34:06.291Z,32.33
2022-08-17T14:36:34.549Z,32.74
2022-08-17T14:39:02.800Z,32.72
2022-08-17T14:41:31.011Z,31.81
2022-08-17T14:44:36.316Z,32.01
2022-08-17T14:47:04.606Z,32.34
2022-08-17T14:49:32.841Z,32.82
2022-08-17T14:52:01.075Z,32.98
2022-08-17T14:54:29.449Z,32.72
2022-08-17T14:58:11.712Z,31.81
2022-08-17T15:01:17.043Z,31.94
2022-08-17T15:04:22.300Z,31.78
2022-08-17T15:07:30.702Z,31.54
2022-08-17T15:10:32.943Z,30.93
2022-08-17T15:13:01.200Z,31.14
2022-08-17T15:15:29.446Z,30.99
2022-08-17T15:18:34.714Z,30.65
2022-08-17T15:21:03.019Z,30.83
2022-08-17T15:23:23.055Z,30.79
2022-08-17T15:26:28.332Z,30.45
2022-08-17T15:29:33.671Z,30.52
2022-08-17T15:32:01.916Z,30.67
2022-08-17T15:34:30.169Z,30.32
2022-08-17T15:37:35.488Z,30.28
2022-08-17T15:40:03.817Z,30.14
2022-08-17T15:42:31.958Z,30.22
2022-08-17T15:45:00.212Z,30.27
2022-08-17T15:47:28.451Z,30.3
2022-08-17T15:50:33.768Z,30.68
2022-08-17T15:53:02.019Z,30.8
2022-08-17T15:55:30.275Z,30.68
2022-08-17T15:58:35.617Z,31.17
2022-08-17T16:01:14.429Z,31.19
2022-08-17T16:03:46.514Z,31.6
2022-08-17T16:06:00.335Z,31.44
2022-08-17T16:08:28.566Z,31.63
2022-08-17T16:11:33.903Z,31.64
2022-08-17T16:14:02.133Z,31.55
2022-08-17T16:16:30.387Z,32.07
2022-08-17T16:19:35.713Z,32.14
2022-08-17T16:23:09.862Z,32.35
2022-08-17T16:26:15.177Z,32.33
2022-08-17T16:29:20.496Z,32.38
2022-08-17T16:33:02.892Z,32.32
2022-08-17T16:35:31.143Z,32.74
2022-08-17T16:37:59.378Z,32.68
2022-08-17T16:40:27.624Z,32.61
2022-08-17T16:43:32.942Z,32.56
2022-08-17T16:46:01.139Z,32.69
2022-08-17T16:48:29.417Z,32.85
2022-08-17T16:51:34.751Z,33.29
2022-08-17T16:54:03.002Z,33.14
2022-08-17T16:56:31.230Z,33.63
2022-08-17T16:59:39.469Z,33.69
2022-08-17T17:02:04.799Z,33.79
2022-08-17T17:04:34.974Z,33.36
2022-08-17T17:07:01.287Z,33.92
2022-08-17T17:09:29.537Z,33.75
2022-08-17T17:12:58.163Z,34.15
2022-08-17T17:15:03.078Z,33.98
2022-08-17T17:17:31.339Z,34.27
2022-08-17T17:20:36.662Z,34.16
2022-08-17T17:23:33.801Z,34.55
2022-08-17T17:26:01.986Z,34.2
2022-08-17T17:28:30.257Z,34.58
2022-08-17T17:32:12.633Z,34.49
2022-08-17T17:35:17.929Z,34.49
2022-08-17T17:38:23.284Z,35.04
2022-08-17T17:41:28.545Z,35.04
2022-08-17T17:44:33.891Z,35.26
2022-08-17T17:47:02.143Z,35.34
2022-08-17T17:49:30.350Z,35.33
2022-08-17T17:52:35.696Z,35.55
2022-08-17T17:55:03.963Z,35.46
2022-08-17T17:57:32.186Z,35.86
2022-08-17T18:00:00.434Z,35.65
2022-08-17T18:02:28.667Z,35.74
2022-08-17T18:05:34.083Z,36.23
2022-08-17T18:08:05.922Z,35.83
2022-08-17T18:10:31.718Z,36.15
2022-08-17T18:13:35.801Z,36.13
2022-08-17T18:16:04.064Z,36.36
2022-08-17T18:18:32.318Z,36.22
2022-08-17T18:21:00.540Z,35.93
2022-08-17T18:23:28.893Z,35.99
2022-08-17T18:26:25.887Z,36.14
2022-08-17T18:29:31.226Z,36.22
2022-08-17T18:31:59.479Z,36.2
2022-08-17T18:34:46.375Z,36.5
2022-08-17T18:37:33.078Z,36.45
2022-08-17T18:40:01.429Z,36.5
2022-08-17T18:42:29.582Z,36.57
2022-08-17T18:45:34.847Z,36.52
2022-08-17T18:48:03.128Z,36.54
2022-08-17T18:50:31.322Z,36.66
2022-08-17T18:53:36.633Z,36.4
2022-08-17T18:56:04.870Z,36.38
2022-08-17T18:58:33.144Z,36.44
2022-08-17T19:01:01.435Z,36.67
2022-08-17T19:03:29.639Z,36.99
2022-08-17T19:06:34.987Z,37.29
2022-08-17T19:09:03.208Z,37.05
2022-08-17T19:11:31.437Z,37.25
2022-08-17T19:14:36.772Z,37.59
2022-08-17T19:17:05.045Z,37.44
2022-08-17T19:19:33.243Z,37.52
2022-08-17T19:22:01.487Z,37.46
2022-08-17T19:25:02.601Z,37.62
2022-08-17T19:27:26.881Z,37.84
2022-08-17T19:30:32.201Z,38.05
2022-08-17T19:33:00.403Z,38.01
2022-08-17T19:35:31.798Z,38.12
2022-08-17T19:38:33.977Z,38.2
2022-08-17T19:41:02.308Z,38.25
2022-08-17T19:43:30.518Z,38.19
2022-08-17T19:46:36.011Z,38.38
2022-08-17T19:49:04.049Z,38.22
2022-08-17T19:51:32.328Z,38.58
2022-08-17T19:54:06.841Z,38.68
2022-08-17T19:56:28.771Z,38.9
2022-08-17T19:59:35.736Z,38.64
2022-08-17T20:02:02.415Z,38.87
2022-08-17T20:04:32.034Z,38.71
2022-08-17T20:07:35.877Z,38.62
2022-08-17T20:10:04.179Z,38.73
2022-08-17T20:12:32.425Z,38.86
2022-08-17T20:15:00.636Z,38.81
2022-08-17T20:17:28.874Z,38.92
2022-08-17T20:20:34.215Z,39.07
2022-08-17T20:23:02.467Z,39.01
2022-08-17T20:25:23.164Z,38.94
2022-08-17T20:28:27.803Z,38.99
2022-08-17T20:31:33.138Z,38.92
2022-08-17T20:34:01.365Z,38.95
2022-08-17T20:36:29.595Z,38.97
2022-08-17T20:39:34.980Z,39.23
2022-08-17T20:42:03.204Z,39.13
2022-08-17T20:44:31.419Z,38.93
2022-08-17T20:46:59.697Z,38.91
2022-08-17T20:49:27.936Z,38.77
2022-08-17T20:52:33.282Z,38.9
2022-08-17T20:55:01.476Z,39.08
2022-08-17T20:57:29.744Z,39.15
2022-08-17T21:00:35.065Z,38.76
2022-08-17T21:03:03.293Z,39.2
2022-08-17T21:05:31.535Z,39.31
2022-08-17T21:08:36.911Z,39.27
2022-08-17T21:11:05.099Z,39.41
2022-08-17T21:13:33.343Z,39.51
2022-08-17T21:16:01.592Z,39.7
2022-08-17T21:18:29.851Z,39.34
2022-08-17T21:21:35.159Z,39.75
2022-08-17T21:25:09.587Z,40.11
2022-08-17T21:28:14.693Z,40.18
2022-08-17T21:31:19.953Z,40.48
2022-08-17T21:34:25.273Z,40.29
2022-08-17T21:37:30.574Z,40.75
2022-08-17T21:40:36.287Z,40.06
2022-08-17T21:43:04.163Z,40.58
2022-08-17T21:45:32.387Z,40.6
2022-08-17T21:48:00.624Z,40.84
2022-08-17T21:50:29.973Z,40.23
2022-08-17T21:53:34.212Z,40.37
2022-08-17T21:56:02.476Z,40.73
2022-08-17T21:58:30.679Z,40.68
2022-08-17T22:01:36.021Z,40.84
2022-08-17T22:04:04.267Z,40.79
2022-08-17T22:06:32.504Z,40.75
2022-08-17T22:09:00.724Z,40.86
2022-08-17T22:11:28.983Z,40.6
2022-08-17T22:14:51.994Z,40.55
2022-08-17T22:17:02.566Z,40.38
2022-08-17T22:19:30.800Z,40.16
2022-08-17T22:22:36.089Z,40.16
2022-08-17T22:25:41.460Z,39.97
2022-08-17T22:28:01.456Z,40.23
2022-08-17T22:30:29.742Z,39.67
2022-08-17T22:33:35.040Z,39.87
2022-08-17T22:36:03.269Z,40.07
2022-08-17T22:38:31.517Z,40.17
2022-08-17T22:40:59.778Z,40.6
2022-08-17T22:43:27.999Z,40.3
2022-08-17T22:46:33.337Z,39.47
2022-08-17T22:50:15.739Z,38.91
2022-08-17T22:53:21.012Z,38.72
2022-08-17T22:56:26.344Z,38.82
2022-08-17T22:59:31.606Z,38.87
2022-08-17T23:01:59.905Z,38.81
2022-08-17T23:04:28.138Z,38.62
2022-08-17T23:07:33.477Z,38.6
2022-08-17T23:10:01.725Z,38.47
2022-08-17T23:12:29.926Z,38.95
2022-08-17T23:15:35.237Z,39.05
2022-08-17T23:18:03.508Z,38.85
2022-08-17T23:20:31.770Z,38.85
2022-08-17T23:23:00.030Z,39.34
2022-08-17T23:25:28.288Z,39.65
2022-08-17T23:28:25.411Z,41.08
2022-08-17T23:31:30.689Z,41.45
2022-08-17T23:33:58.926Z,41.2
2022-08-17T23:36:27.172Z,42.18
2022-08-17T23:39:32.560Z,42.53
2022-08-17T23:42:00.729Z,42.76
2022-08-17T23:44:29.089Z,42.19
2022-08-17T23:47:34.263Z,41.72
2022-08-17T23:50:02.558Z,42.04
2022-08-17T23:52:30.760Z,42.01
2022-08-17T23:55:36.109Z,41.02
2022-08-17T23:58:04.364Z,42.17
